createdAt,value
2022-07-28T00:01:57.464Z,18.93
2022-07-28T00:04:29.152Z,18.93
2022-07-28T00:07:10.594Z,18.77
2022-07-28T00:09:46.165Z,18.80
2022-07-28T00:12:30.097Z,18.86
2022-07-28T00:15:00.390Z,18.97
2022-07-28T00:17:40.909Z,18.79
2022-07-28T00:20:14.282Z,18.75
2022-07-28T00:22:50.630Z,18.38
2022-07-28T00:25:24.229Z,18.48
2022-07-28T00:28:01.829Z,18.67
2022-07-28T00:30:33.387Z,18.45
2022-07-28T00:33:04.589Z,18.52
2022-07-28T00:35:39.300Z,18.42
2022-07-28T00:38:10.629Z,18.28
2022-07-28T00:41:02.610Z,18.22
2022-07-28T00:43:30.626Z,18.01
2022-07-28T00:46:03.961Z,17.68
2022-07-28T00:48:37.723Z,17.64
2022-07-28T00:51:19.168Z,17.77
2022-07-28T00:54:05.166Z,17.76
2022-07-28T00:56:47.047Z,17.75
2022-07-28T00:59:16.600Z,18.00
2022-07-28T01:01:47.467Z,18.12
2022-07-28T01:04:18.394Z,18.17
2022-07-28T01:07:27.536Z,18.20
2022-07-28T01:10:16.637Z,18.10
2022-07-28T01:13:38.504Z,18.03
2022-07-28T01:16:11.624Z,17.69
2022-07-28T01:19:07.835Z,17.86
2022-07-28T01:21:40.143Z,17.51
2022-07-28T01:24:33.419Z,17.84
2022-07-28T01:27:43.144Z,17.78
2022-07-28T01:30:52.355Z,17.21
2022-07-28T01:33:32.303Z,17.35
2022-07-28T01:36:16.227Z,17.18
2022-07-28T01:38:49.651Z,17.27
2022-07-28T01:41:24.355Z,17.43
2022-07-28T01:44:16.597Z,17.57
2022-07-28T01:46:55.956Z,17.26
2022-07-28T01:49:34.542Z,17.32
2022-07-28T01:52:12.195Z,17.52
2022-07-28T01:54:58.898Z,17.72
2022-07-28T01:57:30.242Z,17.73
2022-07-28T02:00:13.092Z,17.71
2022-07-28T02:02:48.506Z,17.62
2022-07-28T02:05:33.135Z,17.50
2022-07-28T02:08:06.439Z,17.60
2022-07-28T02:11:09.875Z,17.53
2022-07-28T02:13:43.302Z,17.66
2022-07-28T02:16:17.176Z,17.68
2022-07-28T02:18:51.588Z,17.78
2022-07-28T02:21:36.327Z,17.52
2022-07-28T02:24:20.191Z,17.55
2022-07-28T02:26:56.783Z,17.55
2022-07-28T02:29:50.358Z,16.95
2022-07-28T02:32:32.431Z,17.26
2022-07-28T02:35:16.552Z,17.06
2022-07-28T02:37:55.742Z,17.01
2022-07-28T02:40:32.997Z,16.54
2022-07-28T02:43:05.819Z,16.80
2022-07-28T02:45:39.465Z,16.72
2022-07-28T02:48:15.940Z,16.68
2022-07-28T02:51:01.729Z,16.69
2022-07-28T02:53:30.596Z,16.55
2022-07-28T02:56:04.438Z,17.16
2022-07-28T02:58:36.162Z,17.21
2022-07-28T03:01:15.517Z,17.28
2022-07-28T03:03:46.708Z,17.24
2022-07-28T03:06:16.951Z,17.37
2022-07-28T03:08:57.608Z,17.16
2022-07-28T03:11:34.981Z,17.06
2022-07-28T03:14:17.444Z,17.07
2022-07-28T03:16:55.520Z,16.92
2022-07-28T03:19:38.507Z,16.83
2022-07-28T03:22:27.369Z,16.76
2022-07-28T03:25:02.962Z,16.75
2022-07-28T03:27:50.127Z,16.81
2022-07-28T03:30:26.487Z,16.58
2022-07-28T03:33:21.886Z,16.65
2022-07-28T03:36:04.660Z,16.52
2022-07-28T03:38:50.463Z,16.56
2022-07-28T03:41:34.534Z,16.66
2022-07-28T03:44:05.869Z,16.81
2022-07-28T03:46:39.633Z,16.92
2022-07-28T03:52:03.530Z,16.98
2022-07-28T03:54:40.782Z,16.88
2022-07-28T03:57:15.071Z,17.01
2022-07-28T03:59:54.092Z,16.97
2022-07-28T04:02:32.100Z,17.09
2022-07-28T04:05:10.054Z,16.95
2022-07-28T04:07:51.031Z,17.04
2022-07-28T04:10:28.625Z,16.90
2022-07-28T04:13:06.270Z,16.72
2022-07-28T04:15:36.281Z,16.75
2022-07-28T04:18:13.533Z,16.84
2022-07-28T04:20:59.057Z,16.79
2022-07-28T04:23:33.706Z,17.06
2022-07-28T04:26:18.408Z,16.82
2022-07-28T04:28:48.095Z,17.17
2022-07-28T04:34:06.278Z,17.24
2022-07-28T04:36:44.828Z,17.21
2022-07-28T04:39:19.156Z,17.18
2022-07-28T04:41:54.527Z,17.31
2022-07-28T04:44:25.321Z,17.43
2022-07-28T04:46:54.635Z,17.64
2022-07-28T04:49:29.639Z,17.72
2022-07-28T04:52:08.286Z,17.68
2022-07-28T04:54:42.712Z,17.55
2022-07-28T04:57:14.466Z,17.62
2022-07-28T04:59:50.909Z,17.63
2022-07-28T05:02:25.601Z,17.49
2022-07-28T05:04:56.351Z,17.62
2022-07-28T05:07:33.139Z,17.78
2022-07-28T05:10:07.308Z,17.94
2022-07-28T05:12:50.981Z,17.95
2022-07-28T05:15:28.326Z,18.16
2022-07-28T05:18:10.190Z,18.30
2022-07-28T05:20:48.187Z,18.43
2022-07-28T05:23:27.164Z,18.48
2022-07-28T05:25:55.418Z,18.79
2022-07-28T05:28:28.522Z,18.95
2022-07-28T05:31:02.118Z,18.89
2022-07-28T05:33:35.218Z,18.98
2022-07-28T05:36:09.251Z,18.91
2022-07-28T05:38:58.090Z,19.26
2022-07-28T05:41:28.211Z,19.16
2022-07-28T05:44:04.598Z,19.15
2022-07-28T05:46:39.882Z,19.10
2022-07-28T05:49:17.696Z,19.29
2022-07-28T05:51:50.348Z,19.33
2022-07-28T05:54:24.439Z,19.60
2022-07-28T05:57:01.777Z,19.76
2022-07-28T05:59:32.122Z,19.61
2022-07-28T06:02:14.907Z,19.66
2022-07-28T06:04:51.023Z,19.87
2022-07-28T06:10:20.716Z,19.88
2022-07-28T06:12:54.477Z,20.09
2022-07-28T06:15:28.782Z,20.00
2022-07-28T06:18:03.883Z,20.15
2022-07-28T06:20:34.671Z,20.02
2022-07-28T06:23:05.930Z,20.02
2022-07-28T06:25:42.255Z,20.15
2022-07-28T06:28:12.689Z,20.18
2022-07-28T06:30:48.903Z,20.08
2022-07-28T06:33:27.915Z,20.22
2022-07-28T06:36:03.675Z,20.67
2022-07-28T06:38:35.230Z,20.84
2022-07-28T06:41:15.551Z,20.77
2022-07-28T06:43:53.931Z,20.99
2022-07-28T06:46:34.750Z,21.05
2022-07-28T06:52:13.680Z,21.34
2022-07-28T06:54:48.988Z,21.56
2022-07-28T06:57:23.345Z,21.69
2022-07-28T07:00:17.488Z,21.88
2022-07-28T07:02:48.798Z,21.95
2022-07-28T07:05:24.912Z,21.93
2022-07-28T07:07:57.931Z,22.11
2022-07-28T07:10:32.059Z,22.26
2022-07-28T07:13:07.491Z,22.38
2022-07-28T07:15:39.582Z,22.35
2022-07-28T07:18:17.872Z,22.55
2022-07-28T07:20:57.809Z,22.70
2022-07-28T07:23:30.286Z,22.78
2022-07-28T07:26:04.080Z,22.63
2022-07-28T07:28:45.994Z,22.80
2022-07-28T07:31:24.509Z,23.10
2022-07-28T07:33:57.384Z,23.24
2022-07-28T07:36:34.744Z,23.42
2022-07-28T07:39:08.736Z,23.58
2022-07-28T07:41:42.614Z,23.61
2022-07-28T07:44:18.158Z,23.68
2022-07-28T07:46:54.315Z,23.99
2022-07-28T07:49:45.111Z,24.27
2022-07-28T07:52:16.669Z,24.07
2022-07-28T07:54:46.989Z,23.90
2022-07-28T07:57:19.844Z,24.29
2022-07-28T08:00:03.919Z,24.65
2022-07-28T08:02:41.955Z,24.61
2022-07-28T08:05:12.340Z,24.79
2022-07-28T08:07:46.765Z,24.70
2022-07-28T08:10:25.685Z,24.79
2022-07-28T08:12:59.353Z,24.76
2022-07-28T08:15:29.988Z,24.94
2022-07-28T08:18:12.036Z,24.96
2022-07-28T08:20:45.484Z,24.98
2022-07-28T08:26:16.135Z,25.04
2022-07-28T08:28:46.702Z,25.37
2022-07-28T08:31:24.340Z,25.58
2022-07-28T08:34:01.864Z,25.60
2022-07-28T08:36:39.134Z,25.48
2022-07-28T08:39:11.480Z,25.78
2022-07-28T08:42:01.241Z,25.68
2022-07-28T08:44:42.211Z,25.76
2022-07-28T08:47:20.506Z,25.26
2022-07-28T08:50:03.260Z,25.31
2022-07-28T08:52:36.930Z,25.43
2022-07-28T08:55:19.245Z,25.58
2022-07-28T08:57:51.354Z,25.62
2022-07-28T09:00:22.604Z,25.93
2022-07-28T09:03:00.645Z,25.87
2022-07-28T09:05:41.808Z,26.31
2022-07-28T09:08:14.820Z,26.64
2022-07-28T09:10:47.719Z,26.45
2022-07-28T09:13:40.747Z,26.22
2022-07-28T09:16:11.825Z,25.90
2022-07-28T09:18:44.827Z,26.27
2022-07-28T09:21:21.652Z,26.64
2022-07-28T09:24:03.920Z,27.06
2022-07-28T09:26:41.022Z,27.41
2022-07-28T09:29:11.584Z,26.81
2022-07-28T09:31:58.746Z,26.60
2022-07-28T09:34:30.065Z,26.66
2022-07-28T09:37:04.827Z,26.48
2022-07-28T09:39:36.602Z,26.48
2022-07-28T09:42:13.732Z,26.90
2022-07-28T09:45:00.065Z,26.60
2022-07-28T09:47:44.525Z,27.19
2022-07-28T09:50:27.373Z,26.75
2022-07-28T09:53:13.678Z,26.57
2022-07-28T09:56:05.159Z,26.48
2022-07-28T09:58:37.170Z,26.57
2022-07-28T10:01:26.529Z,26.84
2022-07-28T10:04:02.697Z,26.85
2022-07-28T10:06:39.567Z,27.12
2022-07-28T10:09:14.905Z,26.92
2022-07-28T10:11:52.563Z,27.21
2022-07-28T10:14:33.863Z,27.34
2022-07-28T10:17:16.807Z,27.14
2022-07-28T10:19:53.545Z,27.00
2022-07-28T10:22:28.317Z,27.12
2022-07-28T10:25:01.133Z,27.27
2022-07-28T10:27:43.071Z,27.61
2022-07-28T10:30:14.845Z,28.55
2022-07-28T10:33:06.018Z,28.89
2022-07-28T10:35:54.196Z,29.09
2022-07-28T10:38:26.033Z,28.87
2022-07-28T10:40:56.628Z,28.56
2022-07-28T10:43:36.049Z,28.87
2022-07-28T10:46:24.161Z,29.44
2022-07-28T10:48:52.870Z,29.98
2022-07-28T10:51:32.455Z,29.68
2022-07-28T10:54:34.189Z,29.23
2022-07-28T10:57:21.231Z,28.65
2022-07-28T11:00:52.816Z,28.91
2022-07-28T11:03:50.583Z,29.05
2022-07-28T11:06:42.339Z,28.30
2022-07-28T11:09:30.954Z,29.31
2022-07-28T11:11:59.454Z,29.69
2022-07-28T11:15:18.188Z,29.38
2022-07-28T11:18:04.507Z,29.54
2022-07-28T11:21:04.844Z,30.02
2022-07-28T11:23:57.776Z,30.14
2022-07-28T11:26:39.130Z,29.63
2022-07-28T11:29:16.656Z,30.08
2022-07-28T11:32:01.834Z,30.32
2022-07-28T11:35:12.470Z,30.38
2022-07-28T11:38:15.175Z,29.48
2022-07-28T11:41:03.751Z,29.85
2022-07-28T11:43:43.066Z,30.97
2022-07-28T11:46:30.129Z,30.48
2022-07-28T11:49:28.941Z,31.00
2022-07-28T11:52:19.832Z,30.46
2022-07-28T11:55:04.156Z,29.51
2022-07-28T11:57:49.540Z,28.72
2022-07-28T12:00:31.327Z,28.92
2022-07-28T12:03:07.704Z,29.68
2022-07-28T12:05:42.060Z,29.75
2022-07-28T12:08:17.559Z,29.07
2022-07-28T12:10:55.393Z,29.49
2022-07-28T12:13:32.488Z,29.84
2022-07-28T12:16:07.520Z,29.19
2022-07-28T12:18:43.733Z,29.24
2022-07-28T12:21:20.690Z,29.56
2022-07-28T12:23:52.869Z,29.81
2022-07-28T12:26:34.391Z,29.78
2022-07-28T12:29:11.095Z,29.94
2022-07-28T12:32:08.384Z,30.23
2022-07-28T12:34:47.926Z,30.23
2022-07-28T12:40:08.492Z,31.06
2022-07-28T12:42:39.646Z,29.98
2022-07-28T12:45:13.713Z,29.71
2022-07-28T12:47:52.385Z,30.58
2022-07-28T12:50:27.241Z,30.61
2022-07-28T12:53:12.966Z,30.81
2022-07-28T12:55:55.112Z,29.39
2022-07-28T12:58:34.648Z,30.64
2022-07-28T13:01:15.301Z,30.72
2022-07-28T13:03:54.585Z,30.83
2022-07-28T13:06:28.565Z,30.59
2022-07-28T13:09:02.244Z,30.80
2022-07-28T13:11:47.347Z,30.55
2022-07-28T13:14:19.105Z,30.93
2022-07-28T13:17:04.579Z,31.20
2022-07-28T13:19:45.252Z,30.61
2022-07-28T13:22:15.999Z,31.06
2022-07-28T13:24:45.937Z,31.09
2022-07-28T13:27:20.540Z,31.55
2022-07-28T13:29:56.599Z,31.43
2022-07-28T13:32:29.300Z,32.46
2022-07-28T13:35:02.791Z,32.60
2022-07-28T13:37:35.493Z,32.82
2022-07-28T13:40:03.370Z,31.82
2022-07-28T13:42:35.189Z,30.93
2022-07-28T13:45:08.534Z,31.08
2022-07-28T13:47:41.312Z,31.67
2022-07-28T13:50:14.998Z,33.04
2022-07-28T13:52:49.685Z,33.76
2022-07-28T13:55:29.928Z,33.95
2022-07-28T13:58:08.431Z,33.27
2022-07-28T14:00:42.296Z,34.43
2022-07-28T14:03:14.949Z,35.05
2022-07-28T14:05:46.790Z,33.66
2022-07-28T14:08:25.301Z,33.28
2022-07-28T14:11:03.772Z,33.27
2022-07-28T14:13:38.476Z,32.49
2022-07-28T14:16:16.139Z,31.63
2022-07-28T14:18:53.604Z,33.11
2022-07-28T14:21:31.340Z,36.66
2022-07-28T14:24:13.348Z,37.02
2022-07-28T14:26:46.202Z,37.32
2022-07-28T14:29:17.039Z,36.62
2022-07-28T14:31:52.017Z,36.28
2022-07-28T14:34:23.095Z,36.80
2022-07-28T14:37:00.409Z,36.65
2022-07-28T14:39:45.187Z,37.31
2022-07-28T14:42:22.034Z,39.36
2022-07-28T14:44:54.090Z,39.17
2022-07-28T14:47:44.856Z,40.99
2022-07-28T14:50:26.563Z,37.66
2022-07-28T14:53:09.302Z,34.78
2022-07-28T14:55:46.830Z,35.48
2022-07-28T14:58:17.454Z,33.27
2022-07-28T15:00:52.078Z,32.88
2022-07-28T15:03:27.414Z,36.02
2022-07-28T15:06:04.127Z,38.11
2022-07-28T15:08:45.718Z,38.33
2022-07-28T15:11:15.290Z,39.20
2022-07-28T15:13:48.333Z,38.23
2022-07-28T15:16:29.482Z,38.45
2022-07-28T15:19:01.361Z,39.05
2022-07-28T15:21:36.327Z,39.33
2022-07-28T15:24:15.707Z,35.48
2022-07-28T15:26:50.829Z,34.66
2022-07-28T15:29:23.886Z,36.37
2022-07-28T15:32:05.987Z,36.59
2022-07-28T15:34:45.487Z,37.22
2022-07-28T15:37:27.979Z,36.93
2022-07-28T15:40:02.339Z,36.77
2022-07-28T15:42:36.580Z,37.69
2022-07-28T15:45:07.166Z,35.79
2022-07-28T15:47:39.272Z,36.23
2022-07-28T15:50:16.101Z,37.88
2022-07-28T15:52:49.215Z,38.08
2022-07-28T15:55:20.361Z,38.05
2022-07-28T15:57:52.427Z,38.25
2022-07-28T16:00:29.491Z,37.30
2022-07-28T16:03:01.606Z,35.74
2022-07-28T16:05:29.872Z,33.34
2022-07-28T16:08:06.593Z,33.67
2022-07-28T16:10:36.971Z,33.23
2022-07-28T16:13:11.079Z,32.83
2022-07-28T16:15:42.195Z,32.40
2022-07-28T16:18:16.788Z,31.96
2022-07-28T16:20:49.860Z,31.81
2022-07-28T16:23:29.110Z,31.35
2022-07-28T16:26:05.351Z,31.16
2022-07-28T16:28:36.843Z,30.82
2022-07-28T16:31:12.265Z,30.15
2022-07-28T16:33:46.592Z,30.54
2022-07-28T16:36:31.871Z,30.41
2022-07-28T16:39:06.632Z,30.33
2022-07-28T16:41:46.491Z,30.45
2022-07-28T16:44:16.075Z,29.96
2022-07-28T16:46:50.312Z,30.14
2022-07-28T16:49:18.391Z,30.13
2022-07-28T16:51:53.204Z,29.91
2022-07-28T16:54:31.660Z,29.65
2022-07-28T16:57:03.874Z,29.59
2022-07-28T16:59:47.653Z,29.53
2022-07-28T17:02:26.754Z,29.26
2022-07-28T17:04:58.093Z,29.34
2022-07-28T17:07:45.159Z,29.30
2022-07-28T17:10:21.031Z,29.23
2022-07-28T17:13:01.336Z,29.12
2022-07-28T17:15:35.821Z,28.79
2022-07-28T17:18:12.240Z,29.04
2022-07-28T17:20:45.942Z,29.04
2022-07-28T17:23:28.812Z,28.86
2022-07-28T17:29:03.668Z,28.54
2022-07-28T17:31:40.580Z,28.51
2022-07-28T17:34:16.802Z,28.07
2022-07-28T17:36:58.539Z,27.80
2022-07-28T17:39:26.997Z,27.86
2022-07-28T17:42:12.178Z,27.63
2022-07-28T17:44:46.402Z,27.52
2022-07-28T17:47:21.048Z,27.13
2022-07-28T17:49:56.477Z,26.97
2022-07-28T17:52:34.057Z,27.23
2022-07-28T17:55:24.399Z,26.94
2022-07-28T17:57:59.708Z,26.80
2022-07-28T18:00:42.189Z,26.74
2022-07-28T18:03:17.699Z,26.74
2022-07-28T18:05:50.626Z,26.59
2022-07-28T18:08:19.706Z,26.21
2022-07-28T18:10:58.670Z,26.39
2022-07-28T18:13:29.847Z,26.42
2022-07-28T18:16:00.986Z,26.34
2022-07-28T18:18:32.162Z,26.14
2022-07-28T18:21:03.039Z,26.00
2022-07-28T18:23:36.825Z,25.68
2022-07-28T18:26:14.485Z,25.67
2022-07-28T18:28:46.566Z,25.68
2022-07-28T18:31:24.699Z,25.43
2022-07-28T18:34:09.035Z,25.34
2022-07-28T18:36:48.101Z,25.12
2022-07-28T18:39:30.657Z,25.21
2022-07-28T18:42:14.534Z,25.17
2022-07-28T18:44:44.307Z,25.15
2022-07-28T18:47:17.522Z,25.11
2022-07-28T18:49:49.919Z,25.04
2022-07-28T18:52:18.671Z,24.92
2022-07-28T18:54:49.751Z,24.77
2022-07-28T18:57:19.790Z,24.86
2022-07-28T18:59:59.988Z,24.81
2022-07-28T19:02:33.679Z,24.70
2022-07-28T19:05:02.880Z,24.62
2022-07-28T19:07:32.971Z,24.60
2022-07-28T19:10:06.192Z,24.55
2022-07-28T19:12:49.817Z,24.59
2022-07-28T19:15:23.591Z,24.52
2022-07-28T19:18:09.898Z,24.22
2022-07-28T19:20:43.969Z,24.30
2022-07-28T19:23:16.731Z,24.09
2022-07-28T19:25:49.512Z,24.08
2022-07-28T19:28:18.274Z,24.05
2022-07-28T19:30:50.109Z,24.06
2022-07-28T19:33:19.587Z,23.98
2022-07-28T19:35:50.945Z,23.85
2022-07-28T19:38:18.803Z,23.59
2022-07-28T19:40:49.538Z,23.25
2022-07-28T19:43:18.485Z,22.85
2022-07-28T19:45:50.588Z,22.71
2022-07-28T19:48:22.448Z,22.85
2022-07-28T19:50:54.322Z,22.75
2022-07-28T19:53:25.294Z,22.90
2022-07-28T19:56:09.397Z,22.57
2022-07-28T19:58:51.261Z,22.84
2022-07-28T20:01:24.184Z,22.77
2022-07-28T20:04:04.876Z,22.32
2022-07-28T20:06:38.959Z,22.15
2022-07-28T20:09:13.944Z,21.98
2022-07-28T20:11:50.524Z,22.03
2022-07-28T20:14:21.936Z,21.71
2022-07-28T20:17:03.400Z,21.67
2022-07-28T20:19:33.481Z,21.85
2022-07-28T20:22:12.740Z,21.30
2022-07-28T20:24:55.871Z,21.70
2022-07-28T20:27:31.889Z,21.87
2022-07-28T20:30:19.205Z,22.13
2022-07-28T20:32:49.320Z,21.99
2022-07-28T20:35:20.651Z,21.74
2022-07-28T20:37:54.943Z,21.51
2022-07-28T20:40:28.724Z,21.60
2022-07-28T20:43:05.164Z,21.52
2022-07-28T20:45:37.180Z,21.62
2022-07-28T20:48:07.546Z,21.29
2022-07-28T20:50:45.585Z,21.33
2022-07-28T20:53:25.752Z,21.37
2022-07-28T20:55:59.528Z,21.35
2022-07-28T20:58:38.900Z,21.37
2022-07-28T21:01:16.539Z,21.43
2022-07-28T21:03:51.683Z,21.09
2022-07-28T21:06:31.777Z,21.05
2022-07-28T21:09:10.203Z,21.35
2022-07-28T21:11:45.074Z,20.99
2022-07-28T21:14:29.083Z,21.19
2022-07-28T21:16:59.132Z,21.03
2022-07-28T21:19:42.889Z,21.03
2022-07-28T21:22:25.429Z,20.81
2022-07-28T21:24:55.885Z,20.84
2022-07-28T21:27:25.964Z,20.84
2022-07-28T21:32:31.683Z,20.42
2022-07-28T21:35:13.797Z,20.25
2022-07-28T21:37:49.767Z,20.28
2022-07-28T21:40:28.534Z,20.39
2022-07-28T21:43:00.491Z,20.07
2022-07-28T21:45:34.372Z,20.27
2022-07-28T21:48:12.968Z,20.06
2022-07-28T21:50:50.638Z,20.05
2022-07-28T21:53:26.370Z,19.67
2022-07-28T21:56:05.606Z,19.97
2022-07-28T21:58:37.420Z,20.29
2022-07-28T22:01:07.681Z,20.18
2022-07-28T22:03:37.249Z,19.98
2022-07-28T22:06:09.186Z,19.81
2022-07-28T22:08:53.281Z,19.70
2022-07-28T22:11:33.432Z,19.77
2022-07-28T22:14:07.601Z,19.39
2022-07-28T22:16:38.526Z,19.59
2022-07-28T22:19:14.931Z,19.49
2022-07-28T22:21:55.506Z,19.66
2022-07-28T22:24:32.261Z,19.04
2022-07-28T22:27:07.433Z,19.45
2022-07-28T22:29:51.529Z,19.22
2022-07-28T22:32:30.469Z,19.56
2022-07-28T22:35:02.958Z,19.78
2022-07-28T22:37:36.432Z,19.48
2022-07-28T22:40:10.814Z,19.55
2022-07-28T22:42:46.702Z,19.42
2022-07-28T22:45:51.058Z,18.93
2022-07-28T22:48:36.250Z,19.03
2022-07-28T22:51:06.076Z,18.94
2022-07-28T22:53:36.903Z,19.29
2022-07-28T22:56:21.759Z,19.25
2022-07-28T22:58:53.983Z,19.03
2022-07-28T23:01:28.748Z,18.94
2022-07-28T23:04:00.241Z,19.15
2022-07-28T23:06:41.861Z,19.51
2022-07-28T23:09:19.236Z,19.17
2022-07-28T23:11:55.510Z,18.94
2022-07-28T23:14:27.006Z,18.67
2022-07-28T23:16:55.400Z,18.67
2022-07-28T23:19:32.029Z,18.56
2022-07-28T23:22:02.699Z,18.88
2022-07-28T23:24:36.169Z,19.18
2022-07-28T23:27:08.883Z,19.41
2022-07-28T23:29:47.993Z,19.02
2022-07-28T23:32:36.470Z,18.97
2022-07-28T23:35:11.880Z,18.86
2022-07-28T23:37:48.548Z,18.62
2022-07-28T23:40:40.016Z,18.58
2022-07-28T23:43:11.270Z,18.69
2022-07-28T23:46:07.911Z,18.76
2022-07-28T23:48:49.375Z,18.83
2022-07-28T23:51:41.109Z,18.61
2022-07-28T23:54:24.004Z,18.50
2022-07-28T23:57:03.883Z,18.69
2022-07-28T23:59:34.310Z,18.99
